Time;durP1;ratioP1;P1;durP2;ratioP2;P2;SDS_P1;SDS_P2;PMS_P1;PMS_P2;Temp;Humidity;BMP_temperature;BMP_pressure;BME280_temperature;BME280_humidity;BME280_pressure;Samples;Min_cycle;Max_cycle;Signal;HPM_P1;HPM_P2
2022/10/06 00:01:08;;;;;;;;;;;;;;;;;;5136784;27;2061;-57
2022/10/06 00:03:37;;;;;;;;;;;;;;;;;;5136637;27;1983;-56
2022/10/06 00:06:04;;;;;;;;;;;;;;;;;;5152669;27;2150;-56
2022/10/06 00:08:33;;;;;;;;;;;;;;;;;;5136311;27;1833;-56
2022/10/06 00:11:01;;;;;;;;;;;;;;;;;;5136495;27;1885;-56
2022/10/06 00:13:29;;;;;;;;;;;;;;;;;;5136620;27;1923;-54
2022/10/06 00:15:56;;;;;;;;;;;;;;;;;;5136690;27;2063;-55
2022/10/06 00:18:24;;;;;;;;;;;;;;;;;;5136598;27;1933;-50
2022/10/06 00:20:59;;;;;;;;;;;;;;;;;;5136374;27;2100;-56
2022/10/06 00:23:27;;;;;;;;;;;;;;;;;;5135317;27;2007;-54
2022/10/06 00:25:55;;;;;;;;;;;;;;;;;;5136461;27;2108;-54
2022/10/06 00:28:22;;;;;;;;;;;;;;;;;;5135397;27;1768;-55
2022/10/06 00:30:52;;;;;;;;;;;;;;;;;;5134945;27;2050;-56
2022/10/06 00:33:19;;;;;;;;;;;;;;;;;;5131409;27;1988;-56
2022/10/06 00:35:55;;;;;;;;;;;;;;;;;;5115386;28;1905;-55
2022/10/06 00:38:23;;;;;;;;;;;;;;;;;;5115418;28;1317;-53
2022/10/06 00:40:52;;;;;;;;;;;;;;;;;;5115188;28;2023;-54
2022/10/06 00:43:38;;;;;;;;;;;;;;;;;;5115514;28;2028;-55
2022/10/06 00:46:10;;;;;;;;;;;;;;;;;;5115475;28;2023;-55
2022/10/06 00:48:38;;;;;;;;;;;;;;;;;;5113695;28;1960;-56
2022/10/06 00:51:05;;;;;;;;;;;;;;;;;;5113838;28;1959;-56
2022/10/06 00:53:32;;;;;;;;;;;;;;;;;;5115263;28;1927;-54
2022/10/06 00:55:59;;;;;;;;;;;;;;;;;;5115108;28;2048;-50
2022/10/06 00:58:26;;;;;;;;;;;;;;;;;;5114097;28;2112;-56
2022/10/06 01:00:55;;;;;;;;;;;;;;;;;;5115070;28;2073;-56
2022/10/06 01:03:38;;;;;;;;;;;;;;;;;;5115017;28;2124;-57
2022/10/06 01:06:06;;;;;;;;;;;;;;;;;;5113489;28;1928;-56
2022/10/06 01:08:33;;;;;;;;;;;;;;;;;;5115136;28;1927;-54
2022/10/06 01:11:01;;;;;;;;;;;;;;;;;;5114698;28;2102;-53
2022/10/06 01:13:29;;;;;;;;;;;;;;;;;;5114949;28;2002;-54
2022/10/06 01:16:02;;;;;;;;;;;;;;;;;;5113624;28;2130;-57
2022/10/06 01:18:30;;;;;;;;;;;;;;;;;;5115030;28;1697;-52
2022/10/06 01:21:16;;;;;;;;;;;;;;;;;;5114623;28;2073;-51
2022/10/06 01:23:44;;;;;;;;;;;;;;;;;;5113403;28;1908;-51
2022/10/06 01:26:12;;;;;;;;;;;;;;;;;;5112801;28;2162;-54
2022/10/06 01:28:39;;;;;;;;;;;;;;;;;;5113215;28;2371;-48
2022/10/06 01:31:07;;;;;;;;;;;;;;;;;;5114435;28;1889;-52
2022/10/06 01:33:34;;;;;;;;;;;;;;;;;;5114354;28;1847;-52
2022/10/06 01:36:01;;;;;;;;;;;;;;;;;;5112870;28;2124;-51
2022/10/06 01:38:29;;;;;;;;;;;;;;;;;;5112980;28;1956;-54
2022/10/06 01:41:01;;;;;;;;;;;;;;;;;;5112673;28;2089;-53
2022/10/06 01:43:28;;;;;;;;;;;;;;;;;;5112995;28;2034;-53
2022/10/06 01:45:56;;;;;;;;;;;;;;;;;;5112912;28;1882;-53
2022/10/06 01:48:24;;;;;;;;;;;;;;;;;;5112873;28;1944;-52
2022/10/06 01:50:54;;;;;;;;;;;;;;;;;;5112697;28;1956;-52
2022/10/06 01:53:21;;;;;;;;;;;;;;;;;;5113807;28;1887;-52
2022/10/06 01:55:49;;;;;;;;;;;;;;;;;;5112764;28;2040;-53
2022/10/06 01:58:21;;;;;;;;;;;;;;;;;;5112578;28;1926;-55
2022/10/06 02:00:49;;;;;;;;;;;;;;;;;;5112559;28;1964;-55
2022/10/06 02:03:17;;;;;;;;;;;;;;;;;;5121224;27;2052;-57
2022/10/06 02:05:44;;;;;;;;;;;;;;;;;;5134371;27;1885;-56
2022/10/06 02:08:11;;;;;;;;;;;;;;;;;;5133001;27;2222;-54
2022/10/06 02:10:40;;;;;;;;;;;;;;;;;;5132899;27;1957;-55
2022/10/06 02:13:13;;;;;;;;;;;;;;;;;;5132998;27;2014;-54
2022/10/06 02:15:40;;;;;;;;;;;;;;;;;;5134208;27;1911;-54
2022/10/06 02:18:07;;;;;;;;;;;;;;;;;;5116502;27;1851;-55
2022/10/06 02:20:35;;;;;;;;;;;;;;;;;;5113305;28;2087;-51
2022/10/06 02:23:02;;;;;;;;;;;;;;;;;;5112180;28;2105;-55
2022/10/06 02:25:30;;;;;;;;;;;;;;;;;;5112241;28;1972;-52
2022/10/06 02:27:58;;;;;;;;;;;;;;;;;;5112174;28;1851;-56
2022/10/06 02:30:26;;;;;;;;;;;;;;;;;;5111927;28;2015;-51
2022/10/06 02:32:54;;;;;;;;;;;;;;;;;;5118039;27;1903;-56
2022/10/06 02:35:22;;;;;;;;;;;;;;;;;;5132559;27;1988;-53
2022/10/06 02:37:50;;;;;;;;;;;;;;;;;;5132393;27;2266;-54
2022/10/06 02:40:18;;;;;;;;;;;;;;;;;;5132235;27;2101;-55
2022/10/06 02:42:45;;;;;;;;;;;;;;;;;;5132196;27;2019;-56
2022/10/06 02:45:16;;;;;;;;;;;;;;;;;;5132226;27;1855;-52
2022/10/06 02:47:43;;;;;;;;;;;;;;;;;;5132313;27;1909;-55
2022/10/06 02:50:11;;;;;;;;;;;;;;;;;;5132388;27;2111;-55
2022/10/06 02:52:41;;;;;;;;;;;;;;;;;;5133119;27;1902;-55
2022/10/06 02:55:09;;;;;;;;;;;;;;;;;;5132216;27;2127;-53
2022/10/06 02:57:36;;;;;;;;;;;;;;;;;;5133431;27;2373;-52
2022/10/06 03:00:06;;;;;;;;;;;;;;;;;;5132289;28;1902;-52
2022/10/06 03:02:33;;;;;;;;;;;;;;;;;;5132474;28;1931;-54
2022/10/06 03:05:01;;;;;;;;;;;;;;;;;;5133653;27;2117;-55
2022/10/06 03:07:28;;;;;;;;;;;;;;;;;;5132132;28;1980;-53
2022/10/06 03:09:56;;;;;;;;;;;;;;;;;;5131921;28;2071;-54
2022/10/06 03:12:24;;;;;;;;;;;;;;;;;;5131922;28;2200;-54
2022/10/06 03:14:51;;;;;;;;;;;;;;;;;;5132059;28;1956;-53
2022/10/06 03:17:19;;;;;;;;;;;;;;;;;;5132021;28;2067;-57
2022/10/06 03:19:51;;;;;;;;;;;;;;;;;;5132067;28;1990;-49
2022/10/06 03:22:18;;;;;;;;;;;;;;;;;;5133531;28;2009;-53
2022/10/06 03:24:56;;;;;;;;;;;;;;;;;;5131693;28;2356;-55
2022/10/06 03:27:24;;;;;;;;;;;;;;;;;;5131247;28;2032;-53
2022/10/06 03:29:54;;;;;;;;;;;;;;;;;;5132062;28;2006;-54
2022/10/06 03:32:23;;;;;;;;;;;;;;;;;;5129681;28;2090;-51
2022/10/06 03:34:52;;;;;;;;;;;;;;;;;;5111558;28;2063;-56
2022/10/06 03:37:19;;;;;;;;;;;;;;;;;;5112374;28;1932;-56
2022/10/06 03:39:46;;;;;;;;;;;;;;;;;;5111361;28;1918;-52
2022/10/06 03:42:14;;;;;;;;;;;;;;;;;;5111205;28;2119;-55
2022/10/06 03:44:41;;;;;;;;;;;;;;;;;;5112534;28;1900;-51
2022/10/06 03:47:09;;;;;;;;;;;;;;;;;;5112592;28;1833;-51
2022/10/06 03:49:41;;;;;;;;;;;;;;;;;;5111410;28;1970;-56
2022/10/06 03:52:09;;;;;;;;;;;;;;;;;;5111141;28;1943;-52
2022/10/06 03:54:37;;;;;;;;;;;;;;;;;;5112899;28;1931;-56
2022/10/06 03:57:04;;;;;;;;;;;;;;;;;;5112379;28;1994;-55
2022/10/06 03:59:33;;;;;;;;;;;;;;;;;;5112410;28;1902;-56
2022/10/06 04:02:04;;;;;;;;;;;;;;;;;;5111093;28;1910;-49
2022/10/06 04:04:36;;;;;;;;;;;;;;;;;;5113293;28;1979;-56
2022/10/06 04:07:07;;;;;;;;;;;;;;;;;;5114905;28;1908;-52
2022/10/06 04:09:35;;;;;;;;;;;;;;;;;;5116147;27;1855;-56
2022/10/06 04:12:02;;;;;;;;;;;;;;;;;;5115983;28;2047;-51
2022/10/06 04:14:32;;;;;;;;;;;;;;;;;;5115855;28;1981;-54
2022/10/06 04:17:01;;;;;;;;;;;;;;;;;;5115840;28;2097;-56
2022/10/06 04:19:34;;;;;;;;;;;;;;;;;;5115759;28;1977;-55
2022/10/06 04:22:01;;;;;;;;;;;;;;;;;;5114554;28;1947;-51
2022/10/06 04:24:30;;;;;;;;;;;;;;;;;;5114527;28;1831;-54
2022/10/06 04:27:26;;;;;;;;;;;;;;;;;;5115761;28;2018;-56
2022/10/06 04:30:04;;;;;;;;;;;;;;;;;;5115447;28;1928;-53
2022/10/06 04:32:33;;;;;;;;;;;;;;;;;;5117395;27;1962;-52
2022/10/06 04:35:00;;;;;;;;;;;;;;;;;;5136041;27;2299;-56
2022/10/06 04:54:22;;;;;;;;;;;;;;;;;;5150863;27;1444;-56
2022/10/06 04:56:55;;;;;;;;;;;;;;;;;;5119426;28;1481;-55
2022/10/06 05:00:21;;;;;;;;;;;;;;;;;;5111423;28;1455;-47
2022/10/06 05:02:14;;;;;;;;;;;;;;;;;;5111127;28;1988;-51
2022/10/06 05:04:42;;;;;;;;;;;;;;;;;;5111522;28;1508;-49
2022/10/06 05:07:11;;;;;;;;;;;;;;;;;;5129741;27;1268;-51
2022/10/06 05:09:38;;;;;;;;;;;;;;;;;;5131764;27;1210;-56
2022/10/06 05:12:10;;;;;;;;;;;;;;;;;;5131544;27;1290;-48
2022/10/06 05:14:38;;;;;;;;;;;;;;;;;;5131666;27;2160;-52
2022/10/06 05:17:05;;;;;;;;;;;;;;;;;;5150353;27;1056;-48
2022/10/06 05:19:35;;;;;;;;;;;;;;;;;;5131253;27;1229;-56
2022/10/06 05:22:02;;;;;;;;;;;;;;;;;;5131399;27;1911;-51
2022/10/06 05:24:31;;;;;;;;;;;;;;;;;;5128444;27;1546;-51
2022/10/06 05:27:00;;;;;;;;;;;;;;;;;;5149680;27;1132;-49
2022/10/06 05:29:28;;;;;;;;;;;;;;;;;;5130765;27;1653;-50
2022/10/06 05:31:56;;;;;;;;;;;;;;;;;;5130962;27;1428;-56
2022/10/06 05:34:25;;;;;;;;;;;;;;;;;;5130519;27;1224;-52
2022/10/06 05:36:52;;;;;;;;;;;;;;;;;;5149222;27;1216;-51
2022/10/06 05:39:19;;;;;;;;;;;;;;;;;;5148596;27;1149;-55
2022/10/06 05:41:54;;;;;;;;;;;;;;;;;;5125655;28;1976;-50
2022/10/06 05:44:23;;;;;;;;;;;;;;;;;;5109913;28;1298;-50
2022/10/06 05:46:50;;;;;;;;;;;;;;;;;;5109371;28;1307;-49
2022/10/06 05:49:18;;;;;;;;;;;;;;;;;;5127913;28;920;-49
2022/10/06 05:51:55;;;;;;;;;;;;;;;;;;5103480;28;1355;-56
2022/10/06 05:54:28;;;;;;;;;;;;;;;;;;5101527;28;1435;-50
2022/10/06 05:56:55;;;;;;;;;;;;;;;;;;5114468;28;1176;-54
2022/10/06 05:59:22;;;;;;;;;;;;;;;;;;5114316;28;1241;-49
2022/10/06 06:01:52;;;;;;;;;;;;;;;;;;5095971;28;1911;-47
2022/10/06 06:04:27;;;;;;;;;;;;;;;;;;5096045;28;1249;-56
2022/10/06 06:06:55;;;;;;;;;;;;;;;;;;5096049;28;1258;-52
2022/10/06 06:09:25;;;;;;;;;;;;;;;;;;5095767;28;1442;-50
2022/10/06 06:11:54;;;;;;;;;;;;;;;;;;5079497;28;1642;-52
2022/10/06 06:17:20;;;;;;;;;;;;;;;;;;5095466;28;1458;-51
2022/10/06 06:19:47;;;;;;;;;;;;;;;;;;5095769;28;1292;-48
2022/10/06 06:22:15;;;;;;;;;;;;;;;;;;5095654;28;2115;-48
2022/10/06 06:24:44;;;;;;;;;;;;;;;;;;5095622;28;1315;-55
2022/10/06 06:27:12;;;;;;;;;;;;;;;;;;5095318;28;1215;-54
2022/10/06 06:29:39;;;;;;;;;;;;;;;;;;5095319;28;1266;-48
2022/10/06 06:32:09;;;;;;;;;;;;;;;;;;5113938;28;915;-50
2022/10/06 06:34:36;;;;;;;;;;;;;;;;;;5095517;28;1176;-50
2022/10/06 06:37:04;;;;;;;;;;;;;;;;;;5095519;28;1397;-46
2022/10/06 06:39:36;;;;;;;;;;;;;;;;;;5095316;28;1397;-48
2022/10/06 06:42:07;;;;;;;;;;;;;;;;;;5119355;27;1910;-46
2022/10/06 06:44:38;;;;;;;;;;;;;;;;;;5134232;27;1013;-55
2022/10/06 06:47:21;;;;;;;;;;;;;;;;;;5115117;27;1429;-49
2022/10/06 06:49:52;;;;;;;;;;;;;;;;;;5133835;27;1020;-48
2022/10/06 06:52:24;;;;;;;;;;;;;;;;;;5133926;27;1360;-52
2022/10/06 06:54:53;;;;;;;;;;;;;;;;;;5115336;27;1338;-51
2022/10/06 06:57:20;;;;;;;;;;;;;;;;;;5098397;27;1187;-51
2022/10/06 06:59:51;;;;;;;;;;;;;;;;;;5115347;27;2511;-49
2022/10/06 07:02:18;;;;;;;;;;;;;;;;;;5115111;27;2237;-51
2022/10/06 07:04:47;;;;;;;;;;;;;;;;;;5115098;27;2422;-51
2022/10/06 07:07:18;;;;;;;;;;;;;;;;;;5114355;27;1439;-53
2022/10/06 07:09:45;;;;;;;;;;;;;;;;;;5115105;27;1180;-50
2022/10/06 07:12:14;;;;;;;;;;;;;;;;;;5115083;27;1385;-49
2022/10/06 07:26:02;;;;;;;;;;;;;;;;;;5133474;27;1209;-56
2022/10/06 07:28:29;;;;;;;;;;;;;;;;;;5114827;27;1343;-51
2022/10/06 07:30:59;;;;;;;;;;;;;;;;;;5114693;27;1283;-47
2022/10/06 07:33:31;;;;;;;;;;;;;;;;;;5114552;27;1252;-53
2022/10/06 07:36:01;;;;;;;;;;;;;;;;;;5114589;27;1376;-50
2022/10/06 07:38:30;;;;;;;;;;;;;;;;;;5114686;27;1257;-52
2022/10/06 07:40:57;;;;;;;;;;;;;;;;;;5114528;27;1406;-48
2022/10/06 07:43:47;;;;;;;;;;;;;;;;;;5094067;28;1913;-54
2022/10/06 07:46:17;;;;;;;;;;;;;;;;;;5093906;28;1340;-48
2022/10/06 07:49:02;;;;;;;;;;;;;;;;;;5112344;28;1006;-48
2022/10/06 07:51:30;;;;;;;;;;;;;;;;;;5093825;28;1233;-54
2022/10/06 07:53:58;;;;;;;;;;;;;;;;;;5093775;28;1673;-47
2022/10/06 07:56:30;;;;;;;;;;;;;;;;;;5093787;28;1293;-49
2022/10/06 07:58:58;;;;;;;;;;;;;;;;;;5093877;28;1568;-50
2022/10/06 08:01:29;;;;;;;;;;;;;;;;;;5111587;28;1081;-54
2022/10/06 08:03:56;;;;;;;;;;;;;;;;;;5111954;28;1981;-53
2022/10/06 08:06:23;;;;;;;;;;;;;;;;;;5111916;28;1067;-53
2022/10/06 08:08:55;;;;;;;;;;;;;;;;;;5112068;28;1294;-49
2022/10/06 08:11:22;;;;;;;;;;;;;;;;;;5111509;28;1108;-50
2022/10/06 08:13:50;;;;;;;;;;;;;;;;;;5111890;28;1078;-50
2022/10/06 08:16:22;;;;;;;;;;;;;;;;;;5111810;28;1359;-48
2022/10/06 08:18:52;;;;;;;;;;;;;;;;;;5111613;28;1151;-47
2022/10/06 08:21:20;;;;;;;;;;;;;;;;;;5111776;28;1186;-48
2022/10/06 08:23:47;;;;;;;;;;;;;;;;;;5111391;28;1967;-49
2022/10/06 08:26:16;;;;;;;;;;;;;;;;;;5111728;28;2015;-50
2022/10/06 08:28:52;;;;;;;;;;;;;;;;;;5111730;28;2250;-54
2022/10/06 08:31:20;;;;;;;;;;;;;;;;;;5111569;28;1788;-48
2022/10/06 08:33:51;;;;;;;;;;;;;;;;;;5111791;28;1683;-47
2022/10/06 08:36:19;;;;;;;;;;;;;;;;;;5111600;28;1669;-47
2022/10/06 08:38:48;;;;;;;;;;;;;;;;;;5111600;28;2000;-51
2022/10/06 08:41:22;;;;;;;;;;;;;;;;;;5111722;28;1569;-50
2022/10/06 08:43:52;;;;;;;;;;;;;;;;;;5111435;28;1976;-49
2022/10/06 08:46:21;;;;;;;;;;;;;;;;;;5111580;28;1941;-49
2022/10/06 08:48:50;;;;;;;;;;;;;;;;;;5111001;28;2106;-49
2022/10/06 08:51:24;;;;;;;;;;;;;;;;;;5111408;28;2139;-48
2022/10/06 08:53:58;;;;;;;;;;;;;;;;;;5111209;28;2063;-50
2022/10/06 08:56:27;;;;;;;;;;;;;;;;;;5111582;28;1678;-47
2022/10/06 08:58:57;;;;;;;;;;;;;;;;;;5111497;28;2078;-50
2022/10/06 09:01:40;;;;;;;;;;;;;;;;;;5111104;28;2014;-45
2022/10/06 09:04:09;;;;;;;;;;;;;;;;;;5111571;28;1959;-48
2022/10/06 09:06:41;;;;;;;;;;;;;;;;;;5111594;28;2110;-51
2022/10/06 09:09:17;;;;;;;;;;;;;;;;;;5111527;28;1927;-47
2022/10/06 09:11:50;;;;;;;;;;;;;;;;;;5110936;28;1886;-48
2022/10/06 09:14:37;;;;;;;;;;;;;;;;;;5111215;28;1939;-49
2022/10/06 09:17:09;;;;;;;;;;;;;;;;;;5094589;28;1795;-51
2022/10/06 09:19:39;;;;;;;;;;;;;;;;;;5111291;28;1818;-46
2022/10/06 09:22:14;;;;;;;;;;;;;;;;;;5111227;28;1529;-49
2022/10/06 09:24:41;;;;;;;;;;;;;;;;;;5111173;28;1983;-50
2022/10/06 09:27:15;;;;;;;;;;;;;;;;;;5111119;28;2018;-47
2022/10/06 09:29:43;;;;;;;;;;;;;;;;;;5113107;28;2111;-48
2022/10/06 09:32:11;;;;;;;;;;;;;;;;;;5115173;28;2154;-48
2022/10/06 09:34:41;;;;;;;;;;;;;;;;;;5115006;28;1886;-49
2022/10/06 09:37:11;;;;;;;;;;;;;;;;;;5115026;28;1704;-49
2022/10/06 09:39:43;;;;;;;;;;;;;;;;;;5114976;28;2022;-55
2022/10/06 09:42:28;;;;;;;;;;;;;;;;;;5121608;27;1718;-48
2022/10/06 09:45:00;;;;;;;;;;;;;;;;;;5135210;27;2011;-48
2022/10/06 09:47:27;;;;;;;;;;;;;;;;;;5135114;27;1814;-48
2022/10/06 09:50:11;;;;;;;;;;;;;;;;;;5134993;27;2089;-48
2022/10/06 09:52:39;;;;;;;;;;;;;;;;;;5134904;27;2087;-51
2022/10/06 09:55:11;;;;;;;;;;;;;;;;;;5134956;27;1954;-49
2022/10/06 09:57:46;;;;;;;;;;;;;;;;;;5134821;27;1848;-48
2022/10/06 10:00:25;;;;;;;;;;;;;;;;;;5135122;27;1817;-46
2022/10/06 10:03:01;;;;;;;;;;;;;;;;;;5134769;27;2038;-51
2022/10/06 10:05:30;;;;;;;;;;;;;;;;;;5134810;27;2246;-48
2022/10/06 10:08:27;;;;;;;;;;;;;;;;;;5134788;27;1651;-46
2022/10/06 10:12:23;;;;;;;;;;;;;;;;;;5114632;27;2101;-47
2022/10/06 10:13:56;;;;;;;;;;;;;;;;;;5134715;27;1378;-47
2022/10/06 10:16:24;;;;;;;;;;;;;;;;;;5134381;27;1742;-48
2022/10/06 10:18:52;;;;;;;;;;;;;;;;;;5134635;27;1846;-48
2022/10/06 10:21:28;;;;;;;;;;;;;;;;;;5134534;27;1842;-51
2022/10/06 10:23:57;;;;;;;;;;;;;;;;;;5134213;27;2140;-53
2022/10/06 10:26:31;;;;;;;;;;;;;;;;;;5134524;27;1520;-54
2022/10/06 10:29:17;;;;;;;;;;;;;;;;;;5134323;27;1761;-54
2022/10/06 10:32:00;;;;;;;;;;;;;;;;;;5134626;27;1750;-53
2022/10/06 10:34:27;;;;;;;;;;;;;;;;;;5134368;27;2063;-51
2022/10/06 10:36:55;;;;;;;;;;;;;;;;;;5133985;27;2027;-49
2022/10/06 10:39:28;;;;;;;;;;;;;;;;;;5134040;27;1709;-54
2022/10/06 10:41:56;;;;;;;;;;;;;;;;;;5129628;27;1762;-55
2022/10/06 10:44:34;;;;;;;;;;;;;;;;;;5113413;28;1982;-52
2022/10/06 10:47:22;;;;;;;;;;;;;;;;;;5113653;28;1728;-50
2022/10/06 10:49:55;;;;;;;;;;;;;;;;;;5113324;28;2236;-53
2022/10/06 10:52:26;;;;;;;;;;;;;;;;;;5113291;28;2246;-51
2022/10/06 10:55:02;;;;;;;;;;;;;;;;;;5113451;28;1847;-48
2022/10/06 10:57:36;;;;;;;;;;;;;;;;;;5113226;28;1442;-50
2022/10/06 11:00:06;;;;;;;;;;;;;;;;;;5113215;28;1363;-51
2022/10/06 11:02:34;;;;;;;;;;;;;;;;;;5112858;28;1946;-54
2022/10/06 11:05:04;;;;;;;;;;;;;;;;;;5113180;28;1906;-53
2022/10/06 11:07:43;;;;;;;;;;;;;;;;;;5095055;28;1567;-55
2022/10/06 11:10:14;;;;;;;;;;;;;;;;;;5113018;28;1996;-50
2022/10/06 11:13:00;;;;;;;;;;;;;;;;;;5112680;28;1631;-53
2022/10/06 11:15:54;;;;;;;;;;;;;;;;;;5094564;28;2657;-54
2022/10/06 11:18:27;;;;;;;;;;;;;;;;;;5109211;28;2047;-54
2022/10/06 11:21:00;;;;;;;;;;;;;;;;;;5112828;28;1985;-50
2022/10/06 11:23:43;;;;;;;;;;;;;;;;;;5112697;28;1901;-49
2022/10/06 11:26:11;;;;;;;;;;;;;;;;;;5112804;28;1499;-51
2022/10/06 11:28:44;;;;;;;;;;;;;;;;;;5112773;28;2031;-49
2022/10/06 11:31:11;;;;;;;;;;;;;;;;;;5112698;28;2131;-57
2022/10/06 11:33:54;;;;;;;;;;;;;;;;;;5098656;27;2022;-52
2022/10/06 11:36:24;;;;;;;;;;;;;;;;;;5133143;27;1833;-56
2022/10/06 11:38:55;;;;;;;;;;;;;;;;;;5132875;27;2043;-54
2022/10/06 11:41:25;;;;;;;;;;;;;;;;;;5133280;27;1977;-54
2022/10/06 11:43:59;;;;;;;;;;;;;;;;;;5112164;28;2040;-53
2022/10/06 11:46:36;;;;;;;;;;;;;;;;;;5112518;28;1976;-52
2022/10/06 11:49:24;;;;;;;;;;;;;;;;;;5112292;28;2127;-54
2022/10/06 11:51:51;;;;;;;;;;;;;;;;;;5111909;28;2316;-54
2022/10/06 11:54:53;;;;;;;;;;;;;;;;;;5112035;28;2203;-51
2022/10/06 11:57:24;;;;;;;;;;;;;;;;;;5099193;28;1561;-53
2022/10/06 12:00:15;;;;;;;;;;;;;;;;;;5112257;28;1807;-55
2022/10/06 12:02:43;;;;;;;;;;;;;;;;;;5111838;28;1804;-54
2022/10/06 12:05:13;;;;;;;;;;;;;;;;;;5111784;28;1909;-51
2022/10/06 12:08:00;;;;;;;;;;;;;;;;;;5111658;28;1945;-54
2022/10/06 12:10:27;;;;;;;;;;;;;;;;;;5112012;28;1716;-54
2022/10/06 12:12:55;;;;;;;;;;;;;;;;;;5111080;28;1749;-54
2022/10/06 12:15:45;;;;;;;;;;;;;;;;;;5112082;28;1748;-54
2022/10/06 12:18:33;;;;;;;;;;;;;;;;;;5111852;28;1984;-54
2022/10/06 12:21:09;;;;;;;;;;;;;;;;;;5111796;28;1669;-55
2022/10/06 12:23:54;;;;;;;;;;;;;;;;;;5111583;28;1977;-50
2022/10/06 12:26:22;;;;;;;;;;;;;;;;;;5111762;28;2103;-48
2022/10/06 12:28:52;;;;;;;;;;;;;;;;;;5111869;28;1965;-54
2022/10/06 12:31:28;;;;;;;;;;;;;;;;;;5111731;28;1832;-46
2022/10/06 12:33:55;;;;;;;;;;;;;;;;;;5093459;28;1961;-53
2022/10/06 12:36:24;;;;;;;;;;;;;;;;;;5111644;28;1935;-48
2022/10/06 12:39:04;;;;;;;;;;;;;;;;;;5111640;28;1884;-53
2022/10/06 12:41:50;;;;;;;;;;;;;;;;;;5112524;28;1809;-54
2022/10/06 12:44:22;;;;;;;;;;;;;;;;;;5132110;28;2035;-54
2022/10/06 12:46:50;;;;;;;;;;;;;;;;;;5131895;28;1756;-51
2022/10/06 12:49:21;;;;;;;;;;;;;;;;;;5132143;28;2228;-55
2022/10/06 12:51:48;;;;;;;;;;;;;;;;;;5132124;28;2190;-46
2022/10/06 12:54:19;;;;;;;;;;;;;;;;;;5131920;28;2201;-50
2022/10/06 12:56:57;;;;;;;;;;;;;;;;;;5132096;28;2175;-53
2022/10/06 12:59:26;;;;;;;;;;;;;;;;;;5131419;28;2002;-52
2022/10/06 13:01:55;;;;;;;;;;;;;;;;;;5132053;28;1798;-53
2022/10/06 13:04:33;;;;;;;;;;;;;;;;;;5133317;27;2245;-54
2022/10/06 13:07:02;;;;;;;;;;;;;;;;;;5136021;27;1576;-55
2022/10/06 13:09:34;;;;;;;;;;;;;;;;;;5135202;27;2070;-55
2022/10/06 13:12:20;;;;;;;;;;;;;;;;;;5117382;27;1983;-53
2022/10/06 13:14:47;;;;;;;;;;;;;;;;;;5135801;27;2429;-55
2022/10/06 13:17:14;;;;;;;;;;;;;;;;;;5135833;27;1618;-52
2022/10/06 13:19:45;;;;;;;;;;;;;;;;;;5117298;27;1841;-54
2022/10/06 13:22:13;;;;;;;;;;;;;;;;;;5135880;27;2189;-53
2022/10/06 13:24:40;;;;;;;;;;;;;;;;;;5117402;27;2319;-54
2022/10/06 13:27:15;;;;;;;;;;;;;;;;;;5135512;27;2004;-50
2022/10/06 13:29:42;;;;;;;;;;;;;;;;;;5135591;27;1609;-54
2022/10/06 13:32:16;;;;;;;;;;;;;;;;;;5123365;27;1698;-53
2022/10/06 13:34:43;;;;;;;;;;;;;;;;;;5114893;28;1905;-54
2022/10/06 13:37:13;;;;;;;;;;;;;;;;;;5115003;28;2117;-53
2022/10/06 13:39:40;;;;;;;;;;;;;;;;;;5114803;28;2151;-53
2022/10/06 13:42:15;;;;;;;;;;;;;;;;;;5120920;27;2171;-55
2022/10/06 13:44:49;;;;;;;;;;;;;;;;;;5135058;27;1971;-50
2022/10/06 13:47:21;;;;;;;;;;;;;;;;;;5135428;27;2128;-53
2022/10/06 13:50:05;;;;;;;;;;;;;;;;;;5135190;27;1940;-47
2022/10/06 13:52:37;;;;;;;;;;;;;;;;;;5135010;27;1931;-52
2022/10/06 13:55:12;;;;;;;;;;;;;;;;;;5099797;27;1968;-52
2022/10/06 13:57:43;;;;;;;;;;;;;;;;;;5134516;27;1836;-50
2022/10/06 14:00:13;;;;;;;;;;;;;;;;;;5129110;27;1438;-46
2022/10/06 14:02:42;;;;;;;;;;;;;;;;;;5114342;28;1956;-47
2022/10/06 14:05:48;;;;;;;;;;;;;;;;;;5114126;28;1971;-52
2022/10/06 14:08:22;;;;;;;;;;;;;;;;;;5011661;28;1998;-55
2022/10/06 14:10:52;;;;;;;;;;;;;;;;;;5017522;28;1972;-52
2022/10/06 14:13:22;;;;;;;;;;;;;;;;;;5087922;27;1259;-49
2022/10/06 14:15:51;;;;;;;;;;;;;;;;;;5134119;27;1831;-52
2022/10/06 14:18:28;;;;;;;;;;;;;;;;;;5134592;27;1922;-48
2022/10/06 14:20:56;;;;;;;;;;;;;;;;;;5134621;27;2073;-54
2022/10/06 14:23:41;;;;;;;;;;;;;;;;;;5134535;27;1802;-54
2022/10/06 14:26:10;;;;;;;;;;;;;;;;;;5134535;27;1907;-52
2022/10/06 14:28:38;;;;;;;;;;;;;;;;;;5134479;27;2012;-54
2022/10/06 14:31:06;;;;;;;;;;;;;;;;;;5134015;27;1815;-54
2022/10/06 14:33:37;;;;;;;;;;;;;;;;;;5134354;27;1841;-51
2022/10/06 14:36:04;;;;;;;;;;;;;;;;;;5134426;27;1444;-53
2022/10/06 14:38:32;;;;;;;;;;;;;;;;;;5134343;27;1934;-54
2022/10/06 14:41:02;;;;;;;;;;;;;;;;;;5134166;27;2232;-50
2022/10/06 14:43:29;;;;;;;;;;;;;;;;;;5116222;27;2191;-48
2022/10/06 14:45:56;;;;;;;;;;;;;;;;;;5113678;28;2043;-50
2022/10/06 14:48:27;;;;;;;;;;;;;;;;;;5113264;28;2035;-52
2022/10/06 14:50:56;;;;;;;;;;;;;;;;;;5113189;28;1928;-53
2022/10/06 14:53:23;;;;;;;;;;;;;;;;;;5113162;28;1980;-53
2022/10/06 14:55:50;;;;;;;;;;;;;;;;;;5112797;28;2053;-54
2022/10/06 14:58:19;;;;;;;;;;;;;;;;;;5113380;28;2048;-45
2022/10/06 15:00:46;;;;;;;;;;;;;;;;;;5113512;28;1621;-52
2022/10/06 15:03:16;;;;;;;;;;;;;;;;;;5095431;28;1914;-49
2022/10/06 15:08:30;;;;;;;;;;;;;;;;;;5112892;28;1947;-53
2022/10/06 15:10:57;;;;;;;;;;;;;;;;;;5113273;28;2213;-54
2022/10/06 15:13:25;;;;;;;;;;;;;;;;;;5112950;28;1987;-54
2022/10/06 15:15:58;;;;;;;;;;;;;;;;;;5113079;28;2194;-51
2022/10/06 15:18:26;;;;;;;;;;;;;;;;;;5112780;28;2032;-54
2022/10/06 15:20:53;;;;;;;;;;;;;;;;;;5112946;28;1689;-54
2022/10/06 15:23:20;;;;;;;;;;;;;;;;;;5112907;28;1832;-52
2022/10/06 15:31:23;;;;;;;;;;;;;;;;;;5112542;28;1877;-50
2022/10/06 15:33:53;;;;;;;;;;;;;;;;;;5112785;28;1904;-53
2022/10/06 15:36:23;;;;;;;;;;;;;;;;;;5112627;28;2140;-53
2022/10/06 15:39:11;;;;;;;;;;;;;;;;;;5112313;28;1789;-50
2022/10/06 15:41:40;;;;;;;;;;;;;;;;;;5114311;27;1987;-47
2022/10/06 15:44:08;;;;;;;;;;;;;;;;;;5132597;27;1946;-51
2022/10/06 15:46:36;;;;;;;;;;;;;;;;;;5132858;27;2303;-51
2022/10/06 15:49:04;;;;;;;;;;;;;;;;;;5132985;27;2319;-54
2022/10/06 15:51:37;;;;;;;;;;;;;;;;;;5132818;27;2212;-52
2022/10/06 15:54:04;;;;;;;;;;;;;;;;;;5132555;27;1977;-51
2022/10/06 15:56:31;;;;;;;;;;;;;;;;;;5132783;27;1943;-54
2022/10/06 15:58:58;;;;;;;;;;;;;;;;;;5132804;27;1613;-53
2022/10/06 16:01:31;;;;;;;;;;;;;;;;;;5131866;27;1519;-54
2022/10/06 16:04:12;;;;;;;;;;;;;;;;;;5114505;27;1852;-53
2022/10/06 16:06:43;;;;;;;;;;;;;;;;;;5132605;27;1976;-53
2022/10/06 16:09:11;;;;;;;;;;;;;;;;;;5132524;27;2135;-49
2022/10/06 16:11:38;;;;;;;;;;;;;;;;;;5132510;27;1473;-50
2022/10/06 16:14:06;;;;;;;;;;;;;;;;;;5132295;27;1900;-52
2022/10/06 16:16:34;;;;;;;;;;;;;;;;;;5132489;27;2061;-53
2022/10/06 16:19:05;;;;;;;;;;;;;;;;;;5132223;27;1738;-50
2022/10/06 16:21:33;;;;;;;;;;;;;;;;;;5132355;27;2024;-53
2022/10/06 16:24:01;;;;;;;;;;;;;;;;;;5132358;27;1845;-54
2022/10/06 16:26:30;;;;;;;;;;;;;;;;;;5132206;27;1990;-52
2022/10/06 16:28:57;;;;;;;;;;;;;;;;;;5132226;27;1642;-52
2022/10/06 16:31:24;;;;;;;;;;;;;;;;;;5131901;27;1694;-52
2022/10/06 16:33:52;;;;;;;;;;;;;;;;;;5132253;27;1814;-53
2022/10/06 16:36:19;;;;;;;;;;;;;;;;;;5132428;27;1870;-48
2022/10/06 16:38:50;;;;;;;;;;;;;;;;;;5132169;27;2089;-52
2022/10/06 16:41:17;;;;;;;;;;;;;;;;;;5132420;27;2154;-50
2022/10/06 16:43:45;;;;;;;;;;;;;;;;;;5132081;27;2104;-52
2022/10/06 16:46:14;;;;;;;;;;;;;;;;;;5131977;28;1975;-50
2022/10/06 16:48:42;;;;;;;;;;;;;;;;;;5132080;28;1957;-51
2022/10/06 16:51:17;;;;;;;;;;;;;;;;;;5131606;28;1902;-52
2022/10/06 16:53:45;;;;;;;;;;;;;;;;;;5132026;28;1908;-53
2022/10/06 16:56:14;;;;;;;;;;;;;;;;;;5131831;28;2004;-53
2022/10/06 16:58:44;;;;;;;;;;;;;;;;;;5131941;28;1906;-52
2022/10/06 17:01:13;;;;;;;;;;;;;;;;;;5131896;28;1940;-53
2022/10/06 17:03:40;;;;;;;;;;;;;;;;;;5131878;28;1793;-55
2022/10/06 17:06:09;;;;;;;;;;;;;;;;;;5131907;28;1897;-55
2022/10/06 17:08:37;;;;;;;;;;;;;;;;;;5131773;28;1875;-51
2022/10/06 17:11:06;;;;;;;;;;;;;;;;;;5131899;28;2205;-54
2022/10/06 17:13:34;;;;;;;;;;;;;;;;;;5131636;28;1986;-53
2022/10/06 17:16:05;;;;;;;;;;;;;;;;;;5131824;28;1722;-54
2022/10/06 17:18:34;;;;;;;;;;;;;;;;;;5113254;28;2089;-55
2022/10/06 17:21:03;;;;;;;;;;;;;;;;;;5113670;28;2218;-54
2022/10/06 17:23:50;;;;;;;;;;;;;;;;;;5131833;28;1660;-50
2022/10/06 17:26:19;;;;;;;;;;;;;;;;;;5131939;28;2098;-53
2022/10/06 17:28:47;;;;;;;;;;;;;;;;;;5131823;28;2185;-53
2022/10/06 17:31:16;;;;;;;;;;;;;;;;;;5131844;28;2249;-54
2022/10/06 17:33:44;;;;;;;;;;;;;;;;;;5113161;28;2328;-51
2022/10/06 17:36:12;;;;;;;;;;;;;;;;;;5131484;28;1796;-53
2022/10/06 17:38:44;;;;;;;;;;;;;;;;;;5131602;28;2000;-53
2022/10/06 17:41:17;;;;;;;;;;;;;;;;;;5131489;28;2045;-54
2022/10/06 17:43:47;;;;;;;;;;;;;;;;;;5111469;28;2179;-53
2022/10/06 17:46:18;;;;;;;;;;;;;;;;;;5110932;28;2226;-53
2022/10/06 17:48:47;;;;;;;;;;;;;;;;;;5111228;28;1648;-54
2022/10/06 17:51:17;;;;;;;;;;;;;;;;;;5113812;28;1921;-54
2022/10/06 17:53:46;;;;;;;;;;;;;;;;;;5114621;28;2102;-50
2022/10/06 17:56:16;;;;;;;;;;;;;;;;;;5114727;28;1499;-55
2022/10/06 17:58:56;;;;;;;;;;;;;;;;;;5114484;28;2285;-51
2022/10/06 18:01:25;;;;;;;;;;;;;;;;;;5114315;28;1879;-56
2022/10/06 18:03:54;;;;;;;;;;;;;;;;;;5114343;28;1661;-51
2022/10/06 18:06:22;;;;;;;;;;;;;;;;;;5114362;28;1913;-51
2022/10/06 18:08:53;;;;;;;;;;;;;;;;;;5114232;28;2136;-52